Time;durP1;ratioP1;P1;durP2;ratioP2;P2;SDS_P1;SDS_P2;PMS_P1;PMS_P2;Temp;Humidity;BMP_temperature;BMP_pressure;BME280_temperature;BME280_humidity;BME280_pressure;Samples;Min_cycle;Max_cycle;Signal;HPM_P1;HPM_P2
2021/04/29 07:31:22;;;;;;;34.67;26.15;;;10.20;99.90;;;;;;5869936;23;21025;-83
2021/04/29 07:34:03;;;;;;;32.42;27.30;;;10.40;99.90;;;;;;4907205;29;20052;-83
2021/04/29 07:36:30;;;;;;;33.45;25.45;;;10.50;99.90;;;;;;4894876;29;20048;-83
2021/04/29 07:38:58;;;;;;;33.75;26.05;;;10.70;99.90;;;;;;4898527;29;20053;-84
2021/04/29 07:41:26;;;;;;;31.45;24.25;;;10.90;99.90;;;;;;4896910;29;20052;-83
2021/04/29 07:43:52;;;;;;;30.95;24.38;;;11.00;99.90;;;;;;4889553;29;20423;-83
2021/04/29 07:46:19;;;;;;;27.38;22.02;;;11.20;99.90;;;;;;4883178;29;20049;-84
2021/04/29 07:48:46;;;;;;;25.98;22.42;;;11.30;99.90;;;;;;4893699;29;20049;-86
2021/04/29 07:51:12;;;;;;;25.10;20.45;;;11.40;99.90;;;;;;4893023;29;20063;-84
2021/04/29 07:53:38;;;;;;;29.35;21.33;;;11.30;99.90;;;;;;4897823;29;20049;-84
2021/04/29 07:56:05;;;;;;;30.45;21.70;;;11.50;99.90;;;;;;4896256;29;20063;-84
2021/04/29 07:58:32;;;;;;;27.05;21.55;;;11.40;99.90;;;;;;4897986;29;20052;-83
2021/04/29 08:00:58;;;;;;;27.98;21.02;;;11.40;99.90;;;;;;4913470;29;20055;-85
2021/04/29 08:03:25;;;;;;;33.30;21.88;;;11.40;99.90;;;;;;4896308;29;20105;-83
2021/04/29 08:05:51;;;;;;;27.52;21.33;;;11.50;99.90;;;;;;4897754;29;20049;-84
2021/04/29 08:08:18;;;;;;;27.10;21.08;;;11.60;99.90;;;;;;4895698;29;20066;-83
2021/04/29 08:10:45;;;;;;;32.72;19.90;;;11.70;99.90;;;;;;4895602;29;20055;-83
2021/04/29 08:13:12;;;;;;;22.67;19.70;;;12.00;99.90;;;;;;4895400;29;20064;-84
2021/04/29 08:15:40;;;;;;;24.60;20.15;;;12.20;99.90;;;;;;4912348;29;20516;-84
2021/04/29 08:18:08;;;;;;;24.55;19.92;;;12.40;99.90;;;;;;4894835;29;20116;-84
2021/04/29 08:20:34;;;;;;;22.88;20.50;;;12.60;99.90;;;;;;4895282;29;20072;-83
2021/04/29 08:23:02;;;;;;;22.40;19.50;;;12.90;99.90;;;;;;4897284;29;20140;-85
2021/04/29 08:25:28;;;;;;;22.85;18.80;;;13.00;99.90;;;;;;4895007;29;20052;-84
2021/04/29 08:27:55;;;;;;;21.90;18.63;;;13.20;99.90;;;;;;4896448;29;20589;-85
2021/04/29 08:30:27;;;;;;;23.08;18.63;;;13.30;99.90;;;;;;4910330;29;20048;-83
2021/04/29 08:32:56;;;;;;;23.35;19.08;;;13.40;99.90;;;;;;4924514;29;20043;-84
2021/04/29 08:35:23;;;;;;;22.97;18.87;;;13.30;99.90;;;;;;4934456;29;20430;-85
2021/04/29 08:37:51;;;;;;;23.48;16.13;;;13.30;99.90;;;;;;4933099;29;20079;-85
2021/04/29 08:40:19;;;;;;;20.33;18.05;;;13.40;99.90;;;;;;4932376;29;20067;-85
2021/04/29 08:42:47;;;;;;;23.42;16.52;;;13.50;99.70;;;;;;4929505;29;20459;-84
2021/04/29 08:45:16;;;;;;;21.92;16.27;;;13.60;99.40;;;;;;4933084;29;20043;-86
2021/04/29 08:47:52;;;;;;;19.58;15.50;;;13.80;99.20;;;;;;4933473;29;20048;-85
2021/04/29 08:50:21;;;;;;;20.88;15.70;;;14.10;98.50;;;;;;4930059;29;20553;-85
2021/04/29 08:52:48;;;;;;;18.52;16.05;;;14.20;98.20;;;;;;4932920;29;20394;-86
2021/04/29 08:55:21;;;;;;;19.48;16.17;;;14.40;97.60;;;;;;4932043;29;20055;-86
2021/04/29 08:57:48;;;;;;;17.75;14.45;;;14.40;97.40;;;;;;4932807;29;20079;-85
2021/04/29 09:00:17;;;;;;;17.42;14.73;;;14.40;97.00;;;;;;4932129;29;20065;-85
2021/04/29 09:02:44;;;;;;;20.95;16.17;;;14.30;97.10;;;;;;4933241;29;20079;-85
2021/04/29 09:05:13;;;;;;;16.30;14.50;;;14.30;97.00;;;;;;4932761;29;20051;-86
2021/04/29 09:07:53;;;;;;;20.15;15.68;;;14.20;96.80;;;;;;4933068;29;20422;-84
2021/04/29 09:10:22;;;;;;;21.77;15.48;;;14.00;96.60;;;;;;4927643;29;20052;-84
2021/04/29 09:12:49;;;;;;;22.60;15.80;;;13.80;96.90;;;;;;4932808;29;20044;-85
2021/04/29 09:15:45;;;;;;;20.25;17.63;;;13.70;96.10;;;;;;4931786;29;20578;-84
2021/04/29 09:18:17;;;;;;;26.00;21.08;;;13.40;96.10;;;;;;4915772;29;20058;-84
2021/04/29 09:20:55;;;;;;;20.90;17.27;;;13.30;96.50;;;;;;4932226;29;20656;-84
2021/04/29 09:23:33;;;;;;;19.35;16.48;;;13.20;96.40;;;;;;4927968;29;20046;-85
2021/04/29 09:26:05;;;;;;;21.13;16.90;;;13.00;96.70;;;;;;4931378;29;20102;-84
2021/04/29 09:28:38;;;;;;;27.17;18.05;;;12.70;97.20;;;;;;4930977;29;20043;-84
2021/04/29 09:31:11;;;;;;;25.40;16.50;;;12.50;97.70;;;;;;4931550;29;20059;-83
2021/04/29 09:33:41;;;;;;;19.80;15.15;;;12.40;98.00;;;;;;4933943;29;20051;-84
2021/04/29 09:36:25;;;;;;;20.02;15.00;;;12.30;98.10;;;;;;4932152;29;20566;-84
2021/04/29 09:38:59;;;;;;;18.98;15.20;;;12.30;98.10;;;;;;4932150;29;20066;-85
2021/04/29 09:41:29;;;;;;;21.77;15.05;;;12.30;98.20;;;;;;4929754;29;20075;-84
2021/04/29 09:44:01;;;;;;;20.17;14.45;;;12.30;98.10;;;;;;4922191;29;20051;-84
2021/04/29 09:46:38;;;;;;;19.50;14.38;;;12.30;98.10;;;;;;4932554;29;20111;-83
2021/04/29 09:49:26;;;;;;;22.23;14.45;;;12.30;98.30;;;;;;4931017;29;20048;-84
2021/04/29 09:51:55;;;;;;;21.83;14.32;;;12.40;98.30;;;;;;4932815;29;20059;-84
2021/04/29 09:54:32;;;;;;;20.63;13.95;;;12.50;98.10;;;;;;4931797;29;20075;-83
2021/04/29 09:57:06;;;;;;;20.27;13.00;;;12.60;97.70;;;;;;4933241;29;20048;-84
2021/04/29 09:59:40;;;;;;;18.13;13.57;;;12.80;97.40;;;;;;4931597;29;20055;-84
2021/04/29 10:02:09;;;;;;;16.98;12.40;;;12.90;97.40;;;;;;4928223;29;20570;-84
2021/04/29 10:04:38;;;;;;;15.45;11.02;;;13.10;96.40;;;;;;4931806;29;20419;-84
2021/04/29 10:07:06;;;;;;;15.18;11.80;;;13.20;95.80;;;;;;4931593;29;20451;-87
2021/04/29 10:09:34;;;;;;;13.43;11.10;;;13.30;94.60;;;;;;4915279;29;20126;-85
2021/04/29 10:12:07;;;;;;;16.88;11.20;;;13.40;94.50;;;;;;4920129;29;20063;-85
2021/04/29 10:14:44;;;;;;;13.77;12.05;;;13.40;94.30;;;;;;4918846;29;20052;-85
2021/04/29 10:17:14;;;;;;;12.80;10.90;;;13.50;93.70;;;;;;4919334;29;20055;-85
2021/04/29 10:19:50;;;;;;;13.57;11.13;;;13.50;94.20;;;;;;4922102;29;20090;-86
2021/04/29 10:22:18;;;;;;;15.80;11.27;;;13.80;94.20;;;;;;4919127;29;20075;-85
2021/04/29 10:24:53;;;;;;;11.40;10.10;;;14.00;94.20;;;;;;4921629;29;20055;-84
2021/04/29 10:27:28;;;;;;;13.75;11.43;;;14.30;94.00;;;;;;4922532;29;20071;-85
2021/04/29 10:30:09;;;;;;;12.10;10.80;;;14.40;93.00;;;;;;4922665;29;20054;-85
2021/04/29 10:32:37;;;;;;;12.60;10.68;;;14.40;92.20;;;;;;4919920;29;20545;-86
2021/04/29 10:35:21;;;;;;;10.93;9.38;;;14.40;92.30;;;;;;4920939;29;20052;-85
2021/04/29 10:37:59;;;;;;;14.18;9.55;;;14.40;91.60;;;;;;4936344;29;20474;-85
2021/04/29 10:40:38;;;;;;;14.13;10.10;;;14.50;90.80;;;;;;4919188;29;20467;-86
2021/04/29 10:43:05;;;;;;;10.90;8.27;;;14.60;89.20;;;;;;4919717;29;20063;-86
2021/04/29 10:45:32;;;;;;;10.27;8.30;;;14.70;90.90;;;;;;4921978;29;20515;-86
2021/04/29 10:48:09;;;;;;;10.63;8.93;;;14.80;90.40;;;;;;4938530;29;20502;-85
2021/04/29 10:50:44;;;;;;;13.87;8.83;;;14.90;90.10;;;;;;4928402;29;20047;-85
2021/04/29 10:53:13;;;;;;;9.63;8.60;;;14.90;90.20;;;;;;4926274;29;20351;-87
2021/04/29 10:55:43;;;;;;;14.15;9.48;;;15.00;90.00;;;;;;4924742;29;20455;-87
2021/04/29 10:58:22;;;;;;;10.93;9.02;;;14.90;89.60;;;;;;4922979;29;20522;-87
2021/04/29 11:01:04;;;;;;;10.32;8.68;;;14.90;88.30;;;;;;4918845;29;20044;-86
2021/04/29 11:03:36;;;;;;;8.57;7.72;;;14.80;88.10;;;;;;4934296;29;20039;-87
2021/04/29 11:06:17;;;;;;;10.73;8.30;;;14.80;88.70;;;;;;4933835;29;20087;-85
2021/04/29 11:08:50;;;;;;;9.85;8.35;;;14.90;87.50;;;;;;4935091;29;20044;-86
2021/04/29 11:11:33;;;;;;;9.52;7.97;;;15.00;87.80;;;;;;4933438;29;20048;-86
2021/04/29 11:14:07;;;;;;;9.93;7.82;;;15.20;87.50;;;;;;4934853;29;20047;-87
2021/04/29 11:16:49;;;;;;;11.45;8.30;;;15.40;88.60;;;;;;4934699;29;20091;-89
2021/04/29 11:19:37;;;;;;;11.73;7.95;;;15.60;87.50;;;;;;4933359;29;20514;-86
2021/04/29 11:22:06;;;;;;;12.43;8.80;;;15.70;87.20;;;;;;4932596;29;20071;-86
2021/04/29 11:24:45;;;;;;;11.52;8.35;;;15.80;87.00;;;;;;4932079;29;20524;-87
2021/04/29 11:27:28;;;;;;;10.57;8.18;;;16.10;85.70;;;;;;4933083;29;20063;-87
2021/04/29 11:30:01;;;;;;;10.07;8.23;;;16.00;85.60;;;;;;4945497;28;20075;-85
2021/04/29 11:32:32;;;;;;;8.65;7.80;;;16.20;86.00;;;;;;4928961;29;20040;-85
2021/04/29 11:35:00;;;;;;;10.48;8.02;;;16.30;86.00;;;;;;4930890;29;20051;-85
2021/04/29 11:37:27;;;;;;;9.50;7.93;;;16.20;84.20;;;;;;4933175;29;20533;-84
2021/04/29 11:40:03;;;;;;;10.55;7.85;;;16.10;83.60;;;;;;4929209;29;20048;-84
2021/04/29 11:42:32;;;;;;;9.82;7.97;;;15.80;83.60;;;;;;4929986;29;20069;-85
2021/04/29 11:45:13;;;;;;;10.23;7.40;;;15.70;83.60;;;;;;4931702;29;20057;-84
2021/04/29 11:47:57;;;;;;;10.25;7.50;;;15.50;82.50;;;;;;4930346;29;20062;-84
2021/04/29 11:50:27;;;;;;;9.93;7.22;;;15.30;84.10;;;;;;4928928;29;20071;-84
2021/04/29 11:53:08;;;;;;;10.02;6.68;;;15.20;84.30;;;;;;4932608;29;20502;-84
2021/04/29 11:55:37;;;;;;;9.48;7.35;;;15.20;83.10;;;;;;4928612;29;20135;-83
2021/04/29 11:58:15;;;;;;;8.18;7.20;;;15.10;84.50;;;;;;4932143;29;20482;-83
2021/04/29 12:00:44;;;;;;;8.32;6.32;;;15.00;84.20;;;;;;4931866;29;20310;-83
2021/04/29 12:03:14;;;;;;;19.52;7.03;;;14.80;84.50;;;;;;4930686;29;20067;-83
2021/04/29 12:05:49;;;;;;;8.38;6.68;;;14.80;85.20;;;;;;4933594;29;20044;-83
2021/04/29 12:08:22;;;;;;;16.50;7.28;;;14.70;85.30;;;;;;4929987;29;20431;-84
2021/04/29 12:10:58;;;;;;;27.00;7.55;;;14.70;85.70;;;;;;4929199;29;20056;-83
2021/04/29 12:13:35;;;;;;;21.25;7.68;;;14.80;86.00;;;;;;4929098;29;20058;-82
2021/04/29 12:16:16;;;;;;;8.90;6.80;;;14.80;85.70;;;;;;4931876;29;20079;-81
2021/04/29 12:18:46;;;;;;;10.82;7.40;;;14.90;85.30;;;;;;4933374;29;20067;-82
2021/04/29 12:21:14;;;;;;;11.10;7.20;;;15.00;85.80;;;;;;4931141;29;20047;-82
2021/04/29 12:23:40;;;;;;;8.98;6.55;;;15.00;85.20;;;;;;4932907;29;20050;-83
2021/04/29 12:26:09;;;;;;;8.40;7.05;;;15.10;85.30;;;;;;4929757;28;20046;-84
2021/04/29 12:28:42;;;;;;;9.23;6.45;;;15.20;85.50;;;;;;4930737;29;20071;-83
2021/04/29 12:31:20;;;;;;;11.20;7.25;;;15.40;85.60;;;;;;4930678;29;20060;-83
2021/04/29 12:34:02;;;;;;;8.83;6.70;;;15.60;85.10;;;;;;4931383;29;20082;-83
2021/04/29 12:36:34;;;;;;;8.48;6.70;;;15.90;83.30;;;;;;4930121;29;20050;-84
2021/04/29 12:39:12;;;;;;;10.63;7.03;;;16.00;84.10;;;;;;4928806;29;20047;-83
2021/04/29 12:41:59;;;;;;;9.43;6.50;;;16.10;82.60;;;;;;4918942;29;20047;-83
2021/04/29 12:44:39;;;;;;;7.38;6.32;;;16.20;82.60;;;;;;4929903;29;20052;-83
2021/04/29 12:47:10;;;;;;;14.85;7.38;;;16.10;81.40;;;;;;4927778;29;20043;-84
2021/04/29 12:49:42;;;;;;;21.33;7.38;;;16.10;81.10;;;;;;4931196;29;20062;-84
2021/04/29 12:52:11;;;;;;;8.20;6.43;;;16.00;80.60;;;;;;4929764;29;20054;-84
2021/04/29 12:54:39;;;;;;;9.68;6.32;;;16.00;81.20;;;;;;4932470;28;20168;-84
2021/04/29 12:57:06;;;;;;;7.45;6.75;;;16.10;82.00;;;;;;4929737;29;20126;-84
2021/04/29 12:59:48;;;;;;;9.35;6.38;;;16.20;82.00;;;;;;4930911;29;20055;-83
2021/04/29 13:02:22;;;;;;;6.85;5.18;;;16.20;81.30;;;;;;4930410;29;20067;-84
2021/04/29 13:05:11;;;;;;;8.82;6.82;;;16.30;81.90;;;;;;4929266;29;20479;-83
2021/04/29 13:07:38;;;;;;;8.75;6.90;;;16.20;79.50;;;;;;4930544;29;20494;-83
2021/04/29 13:10:18;;;;;;;13.20;7.25;;;16.20;80.20;;;;;;4929321;29;20079;-84
2021/04/29 13:12:52;;;;;;;10.15;6.88;;;15.90;79.20;;;;;;4929847;29;20052;-84
2021/04/29 13:15:19;;;;;;;8.05;6.68;;;15.50;80.20;;;;;;4931207;29;20071;-85
2021/04/29 13:17:47;;;;;;;10.27;6.55;;;15.10;81.20;;;;;;4921008;29;20048;-85
2021/04/29 13:20:17;;;;;;;15.50;7.93;;;14.80;81.80;;;;;;4929924;29;20052;-84
2021/04/29 13:22:44;;;;;;;12.65;7.72;;;14.60;84.50;;;;;;4927924;29;20055;-84
2021/04/29 13:25:13;;;;;;;11.15;7.70;;;14.50;86.60;;;;;;4930554;29;20048;-86
2021/04/29 13:27:42;;;;;;;9.38;7.90;;;14.30;87.30;;;;;;4932101;29;20052;-83
2021/04/29 13:30:10;;;;;;;10.48;7.70;;;14.20;86.40;;;;;;4920316;29;20532;-83
2021/04/29 13:32:37;;;;;;;8.50;7.50;;;14.10;87.30;;;;;;4929422;29;20045;-83
2021/04/29 13:35:05;;;;;;;8.13;6.97;;;14.00;86.30;;;;;;4922803;29;20310;-82
2021/04/29 13:37:39;;;;;;;8.98;7.30;;;13.90;86.20;;;;;;4918335;29;20174;-82
2021/04/29 13:40:11;;;;;;;8.88;7.63;;;13.90;86.10;;;;;;4916583;29;20117;-83
2021/04/29 13:42:38;;;;;;;9.32;7.22;;;13.90;85.50;;;;;;4923452;29;20516;-83
2021/04/29 13:45:06;;;;;;;10.80;7.55;;;13.90;84.80;;;;;;4917342;29;20056;-83
2021/04/29 13:47:33;;;;;;;9.38;7.43;;;13.90;84.40;;;;;;4934011;29;20070;-82
2021/04/29 13:49:59;;;;;;;8.40;7.47;;;13.90;84.40;;;;;;4916374;29;20052;-82
2021/04/29 13:52:26;;;;;;;8.90;7.55;;;13.90;83.90;;;;;;4917343;29;20055;-82
2021/04/29 13:54:52;;;;;;;9.25;7.00;;;14.00;83.70;;;;;;4916973;29;20910;-82
2021/04/29 13:57:19;;;;;;;8.65;7.10;;;14.00;84.20;;;;;;4915834;29;20052;-83
2021/04/29 13:59:45;;;;;;;9.32;7.40;;;14.10;84.40;;;;;;4910663;29;20510;-82
2021/04/29 14:02:15;;;;;;;10.15;6.78;;;14.30;83.80;;;;;;4918962;29;20055;-83
2021/04/29 14:04:42;;;;;;;9.40;6.93;;;14.30;83.40;;;;;;4917002;29;20084;-83
2021/04/29 14:07:13;;;;;;;9.32;8.35;;;14.40;83.70;;;;;;4920550;29;20055;-83
2021/04/29 14:09:44;;;;;;;9.18;7.45;;;14.60;83.90;;;;;;4925080;29;20475;-82
2021/04/29 14:12:11;;;;;;;9.65;7.10;;;14.70;83.60;;;;;;4922019;29;20051;-83
2021/04/29 14:14:37;;;;;;;19.05;11.77;;;15.00;83.80;;;;;;4925922;29;20051;-83
2021/04/29 14:17:04;;;;;;;19.05;11.98;;;15.10;87.30;;;;;;4923797;29;20519;-83
2021/04/29 14:19:32;;;;;;;16.05;12.32;;;15.10;90.00;;;;;;4929237;29;20091;-83
2021/04/29 14:21:59;;;;;;;20.52;12.60;;;15.20;90.80;;;;;;4930508;29;20451;-83
2021/04/29 14:24:26;;;;;;;18.55;12.63;;;15.30;91.20;;;;;;4946724;29;20478;-83
2021/04/29 14:26:52;;;;;;;19.95;13.27;;;15.30;91.40;;;;;;4931737;28;20115;-83
2021/04/29 14:29:19;;;;;;;23.45;12.93;;;15.30;91.60;;;;;;4930918;29;20502;-84
2021/04/29 14:31:45;;;;;;;15.35;12.90;;;15.30;91.80;;;;;;4932140;29;20407;-83
2021/04/29 14:34:12;;;;;;;14.73;12.65;;;15.30;91.90;;;;;;4930445;29;20048;-83
2021/04/29 14:36:38;;;;;;;15.43;13.40;;;15.20;92.10;;;;;;4935748;29;20051;-84
2021/04/29 14:39:05;;;;;;;17.65;12.00;;;15.20;92.30;;;;;;4935513;28;20039;-83
2021/04/29 14:41:31;;;;;;;13.90;11.88;;;15.00;92.20;;;;;;4935679;29;20040;-83
2021/04/29 14:43:58;;;;;;;14.80;12.18;;;14.90;92.20;;;;;;4935734;29;20095;-83
2021/04/29 14:46:24;;;;;;;18.33;12.60;;;14.80;92.30;;;;;;4934622;29;20443;-85
2021/04/29 14:48:51;;;;;;;19.95;13.57;;;14.80;92.70;;;;;;4936278;29;20054;-83
2021/04/29 14:51:17;;;;;;;16.85;13.57;;;14.80;92.90;;;;;;4935550;29;20584;-84
2021/04/29 14:53:44;;;;;;;15.95;13.50;;;14.80;93.20;;;;;;4936177;29;20165;-83
2021/04/29 14:56:10;;;;;;;15.60;13.15;;;14.90;93.10;;;;;;4936496;29;20442;-83
2021/04/29 14:58:37;;;;;;;20.23;12.38;;;14.90;93.00;;;;;;4936699;29;20388;-83
2021/04/29 15:01:03;;;;;;;18.60;13.20;;;14.90;93.00;;;;;;4936452;29;20095;-83
2021/04/29 15:03:30;;;;;;;16.10;12.30;;;14.90;93.00;;;;;;4936102;29;20051;-83
2021/04/29 15:05:58;;;;;;;18.92;12.32;;;14.90;93.00;;;;;;4931478;29;20047;-82
2021/04/29 15:08:25;;;;;;;15.70;10.93;;;14.90;93.00;;;;;;4936161;29;20043;-83
2021/04/29 15:10:52;;;;;;;14.48;12.80;;;14.90;93.00;;;;;;4935172;29;20051;-83
2021/04/29 15:13:27;;;;;;;13.65;11.93;;;14.90;92.90;;;;;;4920406;29;20039;-84
2021/04/29 15:15:53;;;;;;;15.75;12.57;;;14.90;92.90;;;;;;4935804;29;20133;-83
2021/04/29 15:18:20;;;;;;;18.13;12.50;;;14.90;93.20;;;;;;4935138;29;20047;-84
2021/04/29 15:20:47;;;;;;;15.93;12.05;;;14.90;93.40;;;;;;4935419;29;20074;-84
2021/04/29 15:23:14;;;;;;;15.75;11.77;;;15.00;93.40;;;;;;4936119;29;20111;-84
2021/04/29 15:25:41;;;;;;;16.42;11.68;;;15.00;93.30;;;;;;4935259;29;20047;-84
2021/04/29 15:28:07;;;;;;;15.18;11.75;;;15.00;92.80;;;;;;4925662;29;20047;-84
2021/04/29 15:30:34;;;;;;;13.93;12.18;;;15.10;92.30;;;;;;4934844;29;20463;-82
2021/04/29 15:33:00;;;;;;;16.65;11.82;;;15.00;92.20;;;;;;4934318;29;20502;-83
2021/04/29 15:35:27;;;;;;;16.98;12.85;;;14.80;92.10;;;;;;4935538;29;20050;-84
2021/04/29 15:37:54;;;;;;;16.15;12.50;;;14.80;92.10;;;;;;4934825;29;20044;-84
2021/04/29 15:40:20;;;;;;;14.77;11.77;;;14.60;92.40;;;;;;4933041;29;20051;-83
2021/04/29 15:42:47;;;;;;;14.20;10.75;;;14.60;92.60;;;;;;4933546;29;20110;-83
2021/04/29 15:45:15;;;;;;;13.45;11.48;;;14.70;92.60;;;;;;4933060;29;20118;-84
2021/04/29 15:47:45;;;;;;;15.18;11.77;;;14.70;92.20;;;;;;4935869;29;20040;-83
2021/04/29 15:50:12;;;;;;;18.50;12.40;;;14.70;92.30;;;;;;4935758;29;20043;-83
2021/04/29 15:52:39;;;;;;;15.50;12.05;;;14.70;92.10;;;;;;4934778;29;20047;-84
2021/04/29 15:55:07;;;;;;;19.52;12.13;;;14.60;92.20;;;;;;4935714;29;20055;-84
2021/04/29 15:57:34;;;;;;;17.10;12.02;;;14.60;92.60;;;;;;4933044;29;20055;-84
2021/04/29 16:00:04;;;;;;;14.68;11.82;;;14.70;93.00;;;;;;4934087;29;20058;-84
2021/04/29 16:02:31;;;;;;;12.38;11.02;;;14.70;93.10;;;;;;4927827;29;20048;-84
2021/04/29 16:05:00;;;;;;;15.73;11.02;;;14.70;92.90;;;;;;4929258;29;20051;-87
2021/04/29 16:07:30;;;;;;;12.27;10.68;;;14.70;92.60;;;;;;4928296;29;20046;-86
2021/04/29 16:09:57;;;;;;;11.85;10.68;;;14.80;92.30;;;;;;4930727;29;20051;-85
2021/04/29 16:12:23;;;;;;;14.10;11.05;;;14.90;92.10;;;;;;4931836;29;20070;-85
2021/04/29 16:14:50;;;;;;;13.35;11.27;;;14.90;91.80;;;;;;4931520;29;20073;-86
2021/04/29 16:17:17;;;;;;;14.10;11.32;;;14.90;91.80;;;;;;4931079;29;20601;-88
2021/04/29 16:19:43;;;;;;;15.07;10.88;;;15.00;91.60;;;;;;4931914;29;21564;-86
2021/04/29 16:22:10;;;;;;;15.73;10.30;;;14.90;91.70;;;;;;4930126;29;20055;-87
2021/04/29 16:24:36;;;;;;;14.25;10.75;;;15.00;91.50;;;;;;4932069;29;20060;-85
2021/04/29 16:27:09;;;;;;;13.95;10.13;;;15.00;91.30;;;;;;4929566;29;20059;-86
2021/04/29 16:29:39;;;;;;;13.80;10.43;;;15.10;91.40;;;;;;4926860;29;20047;-86
2021/04/29 16:32:06;;;;;;;11.15;8.77;;;15.20;91.40;;;;;;4929084;29;20051;-88
2021/04/29 16:34:33;;;;;;;12.30;9.57;;;15.40;90.90;;;;;;4931644;29;20058;-88
2021/04/29 16:37:00;;;;;;;13.68;9.00;;;15.50;90.30;;;;;;4933503;29;20047;-89
2021/04/29 16:39:27;;;;;;;15.18;9.70;;;15.60;90.00;;;;;;4930330;29;20115;-91
2021/04/29 16:42:00;;;;;;;9.73;8.73;;;15.70;90.00;;;;;;4931556;29;20048;-92
2021/04/29 16:44:31;;;;;;;12.07;9.10;;;16.00;90.00;;;;;;4930077;29;20071;-86
2021/04/29 16:46:57;;;;;;;11.18;9.02;;;16.10;89.80;;;;;;4928274;29;20058;-88
2021/04/29 16:49:24;;;;;;;13.60;8.18;;;16.20;89.10;;;;;;4928423;29;20082;-89
2021/04/29 16:51:50;;;;;;;13.27;8.35;;;16.10;87.70;;;;;;4929936;29;20052;-90
2021/04/29 16:54:17;;;;;;;9.48;7.75;;;16.10;87.80;;;;;;4928592;29;20076;-90
2021/04/29 16:56:44;;;;;;;9.68;8.20;;;16.10;87.50;;;;;;4928101;29;20047;-87
2021/04/29 16:59:11;;;;;;;12.07;7.97;;;16.10;87.40;;;;;;4926561;29;20052;-89
2021/04/29 17:01:41;;;;;;;9.82;8.27;;;16.00;86.60;;;;;;4929087;29;20059;-88
2021/04/29 17:04:07;;;;;;;9.25;7.43;;;15.90;86.30;;;;;;4932921;29;20056;-92
2021/04/29 17:06:35;;;;;;;13.93;8.40;;;15.80;86.50;;;;;;4933390;29;20048;-90
2021/04/29 17:09:03;;;;;;;11.27;8.25;;;15.80;86.90;;;;;;4931637;29;20494;-90
2021/04/29 17:11:31;;;;;;;10.32;7.70;;;15.70;87.00;;;;;;4931569;29;20482;-91
2021/04/29 17:13:59;;;;;;;8.73;7.78;;;15.60;86.90;;;;;;4927173;29;20070;-89
2021/04/29 17:16:26;;;;;;;10.90;7.50;;;15.50;86.70;;;;;;4923881;29;20048;-88
2021/04/29 17:18:52;;;;;;;8.50;5.57;;;15.40;85.80;;;;;;4928236;29;20059;-89
2021/04/29 17:21:19;;;;;;;6.75;5.32;;;14.90;86.90;;;;;;4929913;29;20071;-87
2021/04/29 17:23:45;;;;;;;9.30;6.28;;;14.50;88.30;;;;;;4928763;29;20048;-87
2021/04/29 17:26:12;;;;;;;10.07;6.18;;;14.00;89.90;;;;;;4910867;29;20430;-87
2021/04/29 17:28:44;;;;;;;11.02;6.57;;;13.70;90.50;;;;;;4928851;29;20051;-88
2021/04/29 17:31:10;;;;;;;12.50;7.32;;;13.40;91.30;;;;;;4924098;29;20040;-87
2021/04/29 17:33:38;;;;;;;7.93;7.10;;;13.20;91.90;;;;;;4924370;29;20051;-88
2021/04/29 17:36:05;;;;;;;11.30;7.82;;;13.00;92.70;;;;;;4923757;29;20067;-86
2021/04/29 17:38:48;;;;;;;11.70;7.88;;;12.80;93.40;;;;;;4931093;29;20048;-89
2021/04/29 17:41:15;;;;;;;13.75;8.45;;;12.60;94.40;;;;;;4920952;29;20064;-87
2021/04/29 17:43:41;;;;;;;10.00;7.60;;;12.30;95.30;;;;;;4925518;29;20044;-86
2021/04/29 17:46:08;;;;;;;13.70;9.48;;;12.10;96.40;;;;;;4923815;29;20055;-86
2021/04/29 17:48:34;;;;;;;13.25;8.95;;;12.00;97.20;;;;;;4924650;29;20055;-86
2021/04/29 17:51:01;;;;;;;12.23;10.25;;;11.80;97.40;;;;;;4924880;29;20130;-86
2021/04/29 17:53:27;;;;;;;13.85;9.00;;;11.70;98.00;;;;;;4924821;29;20111;-86
2021/04/29 17:55:54;;;;;;;10.30;9.15;;;11.70;98.60;;;;;;4923774;29;20055;-86
2021/04/29 17:58:20;;;;;;;11.43;9.63;;;11.60;99.10;;;;;;4917637;29;20095;-87
2021/04/29 18:00:52;;;;;;;12.23;9.35;;;11.60;99.60;;;;;;4919913;29;20048;-85
2021/04/29 18:03:20;;;;;;;11.38;9.45;;;11.50;99.90;;;;;;4923284;28;20590;-85
2021/04/29 18:05:47;;;;;;;12.07;9.23;;;11.50;99.90;;;;;;4923683;29;20154;-85
2021/04/29 18:08:13;;;;;;;14.25;10.82;;;11.40;99.90;;;;;;4928599;29;20107;-86
2021/04/29 18:10:40;;;;;;;13.80;10.20;;;11.40;99.90;;;;;;4927701;29;20170;-85
2021/04/29 18:13:07;;;;;;;13.27;9.98;;;11.30;99.90;;;;;;4927822;29;20047;-86
2021/04/29 18:15:33;;;;;;;14.82;10.57;;;11.20;99.90;;;;;;4928441;29;20044;-85
2021/04/29 18:18:00;;;;;;;11.35;10.15;;;11.20;99.90;;;;;;4930413;29;20055;-86
2021/04/29 18:20:27;;;;;;;15.25;11.35;;;11.10;99.90;;;;;;4928575;29;20051;-86
2021/04/29 18:22:54;;;;;;;11.55;10.20;;;11.20;99.90;;;;;;4929042;29;20074;-85
2021/04/29 18:25:20;;;;;;;14.00;11.38;;;11.10;99.90;;;;;;4929138;29;20059;-85
2021/04/29 18:27:51;;;;;;;13.90;11.80;;;11.10;99.90;;;;;;4929975;29;20070;-85
2021/04/29 18:30:20;;;;;;;12.43;11.15;;;11.10;99.90;;;;;;4927983;29;20047;-85
2021/04/29 18:32:51;;;;;;;12.40;11.10;;;11.10;99.90;;;;;;4928090;29;20082;-84
2021/04/29 18:35:18;;;;;;;14.32;11.77;;;11.00;99.90;;;;;;4927840;29;20103;-84
2021/04/29 18:37:44;;;;;;;15.13;13.55;;;10.80;99.90;;;;;;4927858;29;20059;-86
2021/04/29 18:40:19;;;;;;;13.27;11.95;;;10.70;99.90;;;;;;4927905;29;20581;-85
2021/04/29 18:42:50;;;;;;;16.42;13.27;;;10.60;99.90;;;;;;4929229;29;20070;-85
2021/04/29 18:45:19;;;;;;;15.05;13.60;;;10.50;99.90;;;;;;4926399;29;20087;-85
2021/04/29 18:47:46;;;;;;;15.23;13.73;;;10.40;99.90;;;;;;4925626;29;20556;-87
2021/04/29 18:50:15;;;;;;;17.67;13.65;;;10.30;99.90;;;;;;4928244;29;20050;-86
2021/04/29 18:52:45;;;;;;;16.05;14.30;;;10.20;99.90;;;;;;4927597;29;20051;-86
2021/04/29 18:55:14;;;;;;;17.30;15.52;;;10.10;99.90;;;;;;4931381;29;20052;-86
2021/04/29 18:57:41;;;;;;;16.95;15.15;;;10.10;99.90;;;;;;4930636;29;20062;-85
2021/04/29 19:00:11;;;;;;;19.15;15.55;;;10.00;99.90;;;;;;4929414;29;20134;-86
2021/04/29 19:02:38;;;;;;;28.10;24.77;;;10.00;99.90;;;;;;4925416;29;20078;-86
2021/04/29 19:05:05;;;;;;;48.47;39.17;;;10.00;99.90;;;;;;4929850;29;20062;-86
2021/04/29 19:07:32;;;;;;;17.27;15.20;;;10.00;99.90;;;;;;4928350;29;20047;-86
2021/04/29 19:09:58;;;;;;;19.90;17.80;;;10.00;99.90;;;;;;4930682;29;20095;-87
2021/04/29 19:12:26;;;;;;;29.17;26.27;;;9.90;99.90;;;;;;4927682;29;20055;-86
2021/04/29 19:14:57;;;;;;;22.73;20.38;;;9.90;99.90;;;;;;4928010;29;20141;-86
2021/04/29 19:17:25;;;;;;;18.27;15.95;;;9.90;99.90;;;;;;4928009;29;20048;-87
2021/04/29 19:19:53;;;;;;;34.80;30.48;;;9.80;99.90;;;;;;4931254;29;20051;-86
2021/04/29 19:22:20;;;;;;;25.35;21.90;;;9.80;99.90;;;;;;4923277;29;20063;-86
2021/04/29 19:24:47;;;;;;;18.02;16.10;;;9.80;99.90;;;;;;4934120;29;20475;-86
2021/04/29 19:27:13;;;;;;;20.20;17.60;;;9.80;99.90;;;;;;4931082;29;20052;-86
2021/04/29 19:29:41;;;;;;;14.40;13.05;;;9.80;99.90;;;;;;4929812;29;20051;-86
2021/04/29 19:32:07;;;;;;;16.17;14.38;;;9.80;99.90;;;;;;4931162;29;20460;-88
2021/04/29 19:34:35;;;;;;;14.68;12.63;;;9.70;99.90;;;;;;4931764;29;20051;-87
2021/04/29 19:37:02;;;;;;;13.88;12.38;;;9.70;99.90;;;;;;4931923;29;20052;-88
2021/04/29 19:39:28;;;;;;;13.02;11.57;;;9.70;99.90;;;;;;4933777;29;20051;-87
2021/04/29 19:41:54;;;;;;;14.48;10.93;;;9.70;99.90;;;;;;4925395;29;20107;-87
2021/04/29 19:44:21;;;;;;;14.75;10.75;;;9.60;99.90;;;;;;4925777;29;20062;-88
2021/04/29 19:46:51;;;;;;;11.18;9.38;;;9.60;99.90;;;;;;4927811;29;20167;-88
2021/04/29 19:49:20;;;;;;;8.93;8.02;;;9.60;99.90;;;;;;4923641;29;20809;-86
2021/04/29 19:51:47;;;;;;;11.43;8.52;;;9.60;99.90;;;;;;4927355;29;20445;-86
2021/04/29 19:54:15;;;;;;;10.65;7.78;;;9.50;99.90;;;;;;4929289;29;20789;-86
2021/04/29 19:56:42;;;;;;;11.27;7.80;;;9.50;99.90;;;;;;4927812;29;20044;-86
2021/04/29 19:59:08;;;;;;;7.35;6.63;;;9.50;99.90;;;;;;4927984;29;20124;-88
2021/04/29 20:01:36;;;;;;;9.55;6.95;;;9.50;99.90;;;;;;4927413;29;20048;-87
2021/04/29 20:04:05;;;;;;;13.40;6.57;;;9.50;99.90;;;;;;4928223;29;20510;-89
2021/04/29 20:06:32;;;;;;;8.07;6.05;;;9.40;99.90;;;;;;4928646;29;20270;-88
2021/04/29 20:08:59;;;;;;;9.00;5.53;;;9.40;99.90;;;;;;4928176;29;20047;-87
2021/04/29 20:11:27;;;;;;;7.38;5.63;;;9.40;99.90;;;;;;4926463;29;20055;-87
2021/04/29 20:13:54;;;;;;;8.77;5.00;;;9.40;99.90;;;;;;4925190;29;20036;-87
2021/04/29 20:16:22;;;;;;;6.57;4.68;;;9.40;99.90;;;;;;4927057;29;20519;-87